createdAt,value
2023-05-17T00:01:56.776Z,1.15
2023-05-17T00:04:24.124Z,1.00
2023-05-17T00:06:51.202Z,0.82
2023-05-17T00:09:18.308Z,1.10
2023-05-17T00:11:45.391Z,1.77
2023-05-17T00:14:12.889Z,1.02
2023-05-17T00:16:40.002Z,1.38
2023-05-17T00:19:07.316Z,1.40
2023-05-17T00:21:35.110Z,1.17
2023-05-17T00:24:02.524Z,1.40
2023-05-17T00:26:29.522Z,1.52
2023-05-17T00:28:56.725Z,1.20
2023-05-17T00:31:23.770Z,0.90
2023-05-17T00:33:51.504Z,0.73
2023-05-17T00:36:18.505Z,0.82
2023-05-17T00:38:45.651Z,1.30
2023-05-17T00:41:13.163Z,1.52
2023-05-17T00:43:40.743Z,1.60
2023-05-17T00:46:07.865Z,1.80
2023-05-17T00:48:37.797Z,2.15
2023-05-17T00:51:08.169Z,1.40
2023-05-17T00:53:37.270Z,1.40
2023-05-17T00:56:05.221Z,1.00
2023-05-17T00:58:33.970Z,0.90
2023-05-17T01:01:01.797Z,0.70
2023-05-17T01:03:30.476Z,1.20
2023-05-17T01:05:57.647Z,1.35
2023-05-17T01:08:24.838Z,1.10
2023-05-17T01:11:13.269Z,1.45
2023-05-17T01:13:55.737Z,1.90
2023-05-17T01:16:27.915Z,1.38
2023-05-17T01:19:06.313Z,1.80
2023-05-17T01:21:39.309Z,1.88
2023-05-17T01:24:30.585Z,2.00
2023-05-17T01:27:00.575Z,1.60
2023-05-17T01:29:30.044Z,1.45
2023-05-17T01:31:59.704Z,1.73
2023-05-17T01:34:28.703Z,2.13
2023-05-17T01:36:57.694Z,1.92
2023-05-17T01:39:27.941Z,1.70
2023-05-17T01:42:08.676Z,1.67
2023-05-17T01:44:50.530Z,1.67
2023-05-17T01:47:28.665Z,1.77
2023-05-17T01:50:01.020Z,1.83
2023-05-17T01:52:37.084Z,1.90
2023-05-17T01:55:10.937Z,1.48
2023-05-17T01:57:43.272Z,1.77
2023-05-17T02:00:13.335Z,1.00
2023-05-17T02:02:45.399Z,2.10
2023-05-17T02:05:13.635Z,1.55
2023-05-17T02:07:40.870Z,2.92
2023-05-17T02:10:08.546Z,2.47
2023-05-17T02:12:36.836Z,2.38
2023-05-17T02:15:04.237Z,2.00
2023-05-17T02:17:32.041Z,1.85
2023-05-17T02:19:59.222Z,1.77
2023-05-17T02:22:26.279Z,1.73
2023-05-17T02:24:53.405Z,1.58
2023-05-17T02:27:20.418Z,2.20
2023-05-17T02:29:47.492Z,1.52
2023-05-17T02:32:14.566Z,2.22
2023-05-17T02:34:44.204Z,2.42
2023-05-17T02:37:11.301Z,2.47
2023-05-17T02:39:38.544Z,2.65
2023-05-17T02:42:06.780Z,2.28
2023-05-17T02:44:33.828Z,1.58
2023-05-17T02:47:00.987Z,1.60
2023-05-17T02:49:28.051Z,1.48
2023-05-17T02:51:55.296Z,2.17
2023-05-17T02:54:24.819Z,2.00
2023-05-17T02:56:52.298Z,1.65
2023-05-17T02:59:19.400Z,1.50
2023-05-17T03:01:46.744Z,1.67
2023-05-17T03:04:14.031Z,1.50
2023-05-17T03:06:41.208Z,1.27
2023-05-17T03:09:12.285Z,1.65
2023-05-17T03:11:40.170Z,2.00
2023-05-17T03:14:14.759Z,2.08
2023-05-17T03:16:42.069Z,1.55
2023-05-17T03:19:09.575Z,1.65
2023-05-17T03:21:37.012Z,1.80
2023-05-17T03:24:04.638Z,1.50
2023-05-17T03:26:33.298Z,1.20
2023-05-17T03:29:00.508Z,1.00
2023-05-17T03:31:28.028Z,0.90
2023-05-17T03:33:55.439Z,0.93
2023-05-17T03:36:23.304Z,1.15
2023-05-17T03:38:50.459Z,0.90
2023-05-17T03:41:17.935Z,0.80
2023-05-17T03:43:45.248Z,1.00
2023-05-17T03:46:14.672Z,0.70
2023-05-17T03:48:41.909Z,0.80
2023-05-17T03:51:12.766Z,0.68
2023-05-17T03:53:43.306Z,0.90
2023-05-17T03:56:13.912Z,0.65
2023-05-17T03:58:42.464Z,0.93
2023-05-17T04:01:11.109Z,1.35
2023-05-17T04:03:38.576Z,0.80
2023-05-17T04:06:07.490Z,0.47
2023-05-17T04:08:36.640Z,0.68
2023-05-17T04:11:10.630Z,0.75
2023-05-17T04:13:38.071Z,0.82
2023-05-17T04:16:05.667Z,0.57
2023-05-17T04:18:38.833Z,0.80
2023-05-17T04:21:06.517Z,0.52
2023-05-17T04:23:35.678Z,0.60
2023-05-17T04:26:04.958Z,0.50
2023-05-17T04:28:35.224Z,0.70
2023-05-17T04:31:08.592Z,0.50
2023-05-17T04:36:06.523Z,0.40
2023-05-17T04:38:34.789Z,0.88
2023-05-17T04:41:07.683Z,0.43
2023-05-17T04:43:37.022Z,0.60
2023-05-17T04:46:07.206Z,0.40
2023-05-17T04:48:35.221Z,0.30
2023-05-17T04:51:04.443Z,0.40
2023-05-17T04:53:32.501Z,0.40
2023-05-17T04:56:04.308Z,0.60
2023-05-17T04:58:32.101Z,1.00
2023-05-17T05:01:00.960Z,0.70
2023-05-17T05:03:28.167Z,0.90
2023-05-17T05:05:55.961Z,0.90
2023-05-17T05:08:24.099Z,0.98
2023-05-17T05:10:52.471Z,0.40
2023-05-17T05:13:24.484Z,0.40
2023-05-17T05:15:53.017Z,0.60
2023-05-17T05:18:20.283Z,0.43
2023-05-17T05:20:51.445Z,0.50
2023-05-17T05:23:19.308Z,0.57
2023-05-17T05:25:48.783Z,0.75
2023-05-17T05:28:16.165Z,1.10
2023-05-17T05:30:44.187Z,0.80
2023-05-17T05:33:12.968Z,0.50
2023-05-17T05:35:40.318Z,0.50
2023-05-17T05:38:12.275Z,0.60
2023-05-17T05:40:39.845Z,1.40
2023-05-17T05:43:06.816Z,1.55
2023-05-17T05:45:34.056Z,0.90
2023-05-17T05:48:08.131Z,0.70
2023-05-17T05:50:35.888Z,0.40
2023-05-17T05:53:17.985Z,0.60
2023-05-17T05:55:49.894Z,0.60
2023-05-17T05:58:17.602Z,0.50
2023-05-17T06:00:45.953Z,0.40
2023-05-17T06:03:13.137Z,0.82
2023-05-17T06:05:40.735Z,0.88
2023-05-17T06:08:08.056Z,0.85
2023-05-17T06:10:35.191Z,0.95
2023-05-17T06:13:02.288Z,0.50
2023-05-17T06:15:31.171Z,0.80
2023-05-17T06:17:58.366Z,0.50
2023-05-17T06:20:25.622Z,0.60
2023-05-17T06:22:52.726Z,0.60
2023-05-17T06:25:20.054Z,0.90
2023-05-17T06:27:47.135Z,0.68
2023-05-17T06:30:14.734Z,0.98
2023-05-17T06:32:42.036Z,0.50
2023-05-17T06:35:09.616Z,0.70
2023-05-17T06:37:36.949Z,1.00
2023-05-17T06:40:16.769Z,0.75
2023-05-17T06:42:44.133Z,0.65
2023-05-17T06:45:15.766Z,0.77
2023-05-17T06:47:45.162Z,1.55
2023-05-17T06:50:12.387Z,1.17
2023-05-17T06:52:39.867Z,0.50
2023-05-17T06:55:07.813Z,0.60
2023-05-17T06:57:38.027Z,0.60
2023-05-17T07:00:11.255Z,0.40
2023-05-17T07:02:38.644Z,0.55
2023-05-17T07:05:06.964Z,0.50
2023-05-17T07:07:34.195Z,0.60
2023-05-17T07:10:01.229Z,0.40
2023-05-17T07:12:28.391Z,0.57
2023-05-17T07:14:55.728Z,0.28
2023-05-17T07:17:22.884Z,0.80
2023-05-17T07:19:51.328Z,0.40
2023-05-17T07:22:19.031Z,0.57
2023-05-17T07:24:52.012Z,0.50
2023-05-17T07:27:19.200Z,1.02
2023-05-17T07:29:46.522Z,0.35
2023-05-17T07:32:14.033Z,0.68
2023-05-17T07:34:41.337Z,0.45
2023-05-17T07:37:08.645Z,0.65
2023-05-17T07:39:35.820Z,0.70
2023-05-17T07:42:05.278Z,0.75
2023-05-17T07:44:32.860Z,0.40
2023-05-17T07:47:00.319Z,0.95
2023-05-17T07:49:27.899Z,1.08
2023-05-17T07:51:55.725Z,0.50
2023-05-17T07:54:24.754Z,0.50
2023-05-17T07:56:53.480Z,0.30
2023-05-17T07:59:21.317Z,0.30
2023-05-17T08:01:48.464Z,0.50
2023-05-17T08:04:16.017Z,0.30
2023-05-17T08:06:45.774Z,0.32
2023-05-17T08:09:13.258Z,0.40
2023-05-17T08:11:45.988Z,0.40
2023-05-17T08:14:14.767Z,0.57
2023-05-17T08:16:47.890Z,0.50
2023-05-17T08:19:16.073Z,0.30
2023-05-17T08:21:43.949Z,0.60
2023-05-17T08:24:19.289Z,0.40
2023-05-17T08:26:46.484Z,0.35
2023-05-17T08:29:13.538Z,0.40
2023-05-17T08:31:44.247Z,0.45
2023-05-17T08:34:11.625Z,0.50
2023-05-17T08:36:38.898Z,0.63
2023-05-17T08:39:08.217Z,0.28
2023-05-17T08:41:38.549Z,0.40
2023-05-17T08:44:06.500Z,0.50
2023-05-17T08:46:37.087Z,0.43
2023-05-17T08:49:06.412Z,0.40
2023-05-17T08:51:34.631Z,0.45
2023-05-17T08:54:05.955Z,0.50
2023-05-17T08:56:35.704Z,0.50
2023-05-17T08:59:05.888Z,0.50
2023-05-17T09:04:52.055Z,0.40
2023-05-17T09:09:52.463Z,0.50
2023-05-17T09:12:21.870Z,0.50
2023-05-17T09:15:15.576Z,0.45
2023-05-17T09:18:14.708Z,0.30
2023-05-17T09:20:51.855Z,0.40
2023-05-17T09:23:21.543Z,0.55
2023-05-17T09:25:50.011Z,0.50
2023-05-17T09:28:52.084Z,0.20
2023-05-17T09:31:22.266Z,0.40
2023-05-17T09:33:50.853Z,0.40
2023-05-17T09:36:25.560Z,0.30
2023-05-17T09:38:59.652Z,0.38
2023-05-17T09:41:53.063Z,0.30
2023-05-17T09:44:23.552Z,0.28
2023-05-17T09:46:53.232Z,0.57
2023-05-17T09:49:20.696Z,0.30
2023-05-17T09:51:52.557Z,0.60
2023-05-17T09:54:28.934Z,0.40
2023-05-17T09:57:18.904Z,0.60
2023-05-17T09:59:47.484Z,0.40
2023-05-17T10:02:28.096Z,0.30
2023-05-17T10:05:20.362Z,0.50
2023-05-17T10:08:25.861Z,0.30
2023-05-17T10:10:59.840Z,0.47
2023-05-17T10:13:47.377Z,0.40
2023-05-17T10:16:48.734Z,0.30
2023-05-17T10:20:26.220Z,0.30
2023-05-17T10:23:06.697Z,0.57
2023-05-17T10:25:42.517Z,0.22
2023-05-17T10:28:11.841Z,0.40
2023-05-17T10:30:39.721Z,0.32
2023-05-17T10:33:08.134Z,0.60
2023-05-17T10:35:39.373Z,0.52
2023-05-17T10:38:18.333Z,0.30
2023-05-17T10:40:47.619Z,0.50
2023-05-17T10:43:18.399Z,0.43
2023-05-17T10:45:50.983Z,0.35
2023-05-17T10:48:28.156Z,0.40
2023-05-17T10:53:28.277Z,0.32
2023-05-17T10:55:55.550Z,0.45
2023-05-17T10:58:28.217Z,0.10
2023-05-17T11:01:07.252Z,0.38
2023-05-17T11:03:36.799Z,0.28
2023-05-17T11:06:40.006Z,0.20
2023-05-17T11:13:27.637Z,0.32
2023-05-17T11:16:10.370Z,0.32
2023-05-17T11:18:54.357Z,0.40
2023-05-17T11:21:30.375Z,0.60
2023-05-17T11:24:03.456Z,0.13
2023-05-17T11:26:38.249Z,0.30
2023-05-17T11:29:11.867Z,0.43
2023-05-17T11:31:45.438Z,0.17
2023-05-17T11:34:13.100Z,0.22
2023-05-17T11:36:53.925Z,0.20
2023-05-17T11:39:23.785Z,0.43
2023-05-17T11:41:55.694Z,0.30
2023-05-17T11:44:37.219Z,0.15
2023-05-17T11:49:52.796Z,1.00
2023-05-17T11:52:33.067Z,0.60
2023-05-17T11:55:04.139Z,0.80
2023-05-17T11:57:40.728Z,0.30
2023-05-17T12:00:08.565Z,0.30
2023-05-17T12:02:41.507Z,0.40
2023-05-17T12:05:09.590Z,0.40
2023-05-17T12:07:37.762Z,0.40
2023-05-17T12:10:06.583Z,0.30
2023-05-17T12:12:33.805Z,0.55
2023-05-17T12:15:00.932Z,0.63
2023-05-17T12:17:37.330Z,0.45
2023-05-17T12:20:12.118Z,0.60
2023-05-17T12:22:56.355Z,0.50
2023-05-17T12:25:25.826Z,0.43
2023-05-17T12:27:58.388Z,0.50
2023-05-17T12:30:28.379Z,1.00
2023-05-17T12:32:56.031Z,0.40
2023-05-17T12:35:23.285Z,0.47
2023-05-17T12:37:50.897Z,0.35
2023-05-17T12:40:18.149Z,0.45
2023-05-17T12:42:45.473Z,0.40
2023-05-17T12:45:13.264Z,0.40
2023-05-17T12:47:40.676Z,0.40
2023-05-17T12:50:07.939Z,0.38
2023-05-17T12:52:36.968Z,0.55
2023-05-17T12:55:04.962Z,0.40
2023-05-17T12:57:37.153Z,0.60
2023-05-17T13:00:10.585Z,0.60
2023-05-17T13:02:44.591Z,0.77
2023-05-17T13:06:00.845Z,0.50
2023-05-17T13:13:27.223Z,0.70
2023-05-17T13:19:39.030Z,0.30
2023-05-17T13:22:08.184Z,0.40
2023-05-17T13:24:39.945Z,0.60
2023-05-17T13:25:47.480Z,0.52
2023-05-17T13:27:08.327Z,0.60
2023-05-17T13:29:40.028Z,0.60
2023-05-17T13:32:09.653Z,0.50
2023-05-17T13:34:36.956Z,0.55
2023-05-17T13:37:05.089Z,0.40
2023-05-17T13:39:32.518Z,0.55
2023-05-17T13:42:00.249Z,0.40
2023-05-17T13:44:28.241Z,0.45
2023-05-17T13:46:55.501Z,0.40
2023-05-17T13:49:27.562Z,0.30
2023-05-17T13:51:54.762Z,0.73
2023-05-17T13:54:25.198Z,0.75
2023-05-17T13:56:52.625Z,0.50
2023-05-17T13:59:19.773Z,0.50
2023-05-17T14:01:49.755Z,0.50
2023-05-17T14:07:46.159Z,0.45
2023-05-17T14:13:04.129Z,0.80
2023-05-17T14:15:32.853Z,0.50
2023-05-17T14:18:03.655Z,0.43
2023-05-17T14:20:39.507Z,0.50
2023-05-17T14:23:33.782Z,0.40
2023-05-17T14:33:37.484Z,0.95
2023-05-17T14:36:20.343Z,0.52
2023-05-17T14:42:59.960Z,0.50
2023-05-17T14:46:17.363Z,0.40
2023-05-17T14:48:59.508Z,0.90
2023-05-17T14:52:00.638Z,0.30
2023-05-17T14:54:36.841Z,0.40
2023-05-17T14:57:23.097Z,0.82
2023-05-17T14:59:50.312Z,0.82
2023-05-17T15:02:17.628Z,0.60
2023-05-17T15:04:45.014Z,0.30
2023-05-17T15:07:21.586Z,0.32
2023-05-17T15:09:48.842Z,0.40
2023-05-17T15:12:17.319Z,0.43
2023-05-17T15:14:46.616Z,0.57
2023-05-17T15:17:13.762Z,0.40
2023-05-17T15:19:41.538Z,0.55
2023-05-17T15:22:09.621Z,0.70
2023-05-17T15:24:50.438Z,0.43
2023-05-17T15:27:30.561Z,0.43
2023-05-17T15:30:16.733Z,0.40
2023-05-17T15:32:50.417Z,0.35
2023-05-17T15:39:24.885Z,0.47
2023-05-17T15:41:55.551Z,0.55
2023-05-17T15:44:33.741Z,0.70
2023-05-17T15:47:03.585Z,0.40
2023-05-17T15:49:33.998Z,0.50
2023-05-17T15:52:01.358Z,0.50
2023-05-17T15:54:28.527Z,0.40
2023-05-17T15:56:56.072Z,0.50
2023-05-17T15:59:23.385Z,0.40
2023-05-17T16:01:50.731Z,0.40
2023-05-17T16:04:20.248Z,0.80
2023-05-17T16:06:55.182Z,0.55
2023-05-17T16:09:27.234Z,0.40
2023-05-17T16:11:57.029Z,0.40
2023-05-17T16:14:25.341Z,0.70
2023-05-17T16:16:54.350Z,0.63
2023-05-17T16:19:22.361Z,0.30
2023-05-17T16:21:51.175Z,0.30
2023-05-17T16:24:33.210Z,0.43
2023-05-17T16:27:14.875Z,0.50
2023-05-17T16:29:45.887Z,0.50
2023-05-17T16:32:13.247Z,0.82
2023-05-17T16:34:43.159Z,0.70
2023-05-17T16:37:18.864Z,0.40
2023-05-17T16:39:46.789Z,0.57
2023-05-17T16:42:17.386Z,0.75
2023-05-17T16:48:09.315Z,0.57
2023-05-17T16:50:37.278Z,0.60
2023-05-17T16:53:04.407Z,0.50
2023-05-17T16:55:31.708Z,0.63
2023-05-17T16:57:58.808Z,0.38
2023-05-17T17:00:26.065Z,0.50
2023-05-17T17:03:49.167Z,0.63
2023-05-17T17:06:16.340Z,0.85
2023-05-17T17:08:44.561Z,0.50
2023-05-17T17:11:11.758Z,0.47
2023-05-17T17:13:39.425Z,0.50
2023-05-17T17:16:06.882Z,0.70
2023-05-17T17:18:39.248Z,0.40
2023-05-17T17:21:08.638Z,0.50
2023-05-17T17:23:38.808Z,0.60
2023-05-17T17:26:11.949Z,0.50
2023-05-17T17:28:39.565Z,0.57
2023-05-17T17:31:12.952Z,0.47
2023-05-17T17:33:40.347Z,0.73
2023-05-17T17:36:12.069Z,0.57
2023-05-17T17:41:07.379Z,0.40
2023-05-17T17:43:39.461Z,0.57
2023-05-17T17:46:06.800Z,0.60
2023-05-17T17:48:41.335Z,0.50
2023-05-17T17:51:11.187Z,0.50
2023-05-17T17:53:41.366Z,0.60
2023-05-17T17:56:17.036Z,0.60
2023-05-17T17:58:46.930Z,0.70
2023-05-17T18:01:34.071Z,0.57
2023-05-17T18:04:01.598Z,0.50
2023-05-17T18:06:39.274Z,0.45
2023-05-17T18:09:07.781Z,0.55
2023-05-17T18:11:34.932Z,0.47
2023-05-17T18:14:06.324Z,0.45
2023-05-17T18:16:33.830Z,0.40
2023-05-17T18:19:01.302Z,0.85
2023-05-17T18:24:15.206Z,0.50
2023-05-17T18:26:42.565Z,0.40
2023-05-17T18:29:15.726Z,0.65
2023-05-17T18:31:43.403Z,0.52
2023-05-17T18:34:10.769Z,0.22
2023-05-17T18:36:40.001Z,0.65
2023-05-17T18:40:18.146Z,0.50
2023-05-17T18:42:53.008Z,0.40
2023-05-17T18:45:25.073Z,0.40
2023-05-17T18:48:03.469Z,0.32
2023-05-17T18:50:31.656Z,0.30
2023-05-17T18:53:00.615Z,0.30
2023-05-17T18:55:30.260Z,0.50
2023-05-17T18:58:06.613Z,0.50
2023-05-17T19:00:34.082Z,0.60
2023-05-17T19:03:01.560Z,0.65
2023-05-17T19:05:28.936Z,0.80
2023-05-17T19:07:56.061Z,0.55
2023-05-17T19:10:23.510Z,0.40
2023-05-17T19:12:58.343Z,0.43
2023-05-17T19:15:26.046Z,0.40
2023-05-17T19:17:56.065Z,0.50
2023-05-17T19:20:23.548Z,0.30
2023-05-17T19:22:52.865Z,0.40
2023-05-17T19:25:21.107Z,0.30
2023-05-17T19:27:48.344Z,0.57
2023-05-17T19:30:15.902Z,0.50
2023-05-17T19:32:50.803Z,0.30
2023-05-17T19:35:22.832Z,0.47
2023-05-17T19:37:55.663Z,0.40
2023-05-17T19:40:28.688Z,0.30
2023-05-17T19:45:54.449Z,0.32
2023-05-17T19:48:34.111Z,0.40
2023-05-17T19:51:01.302Z,0.40
2023-05-17T19:53:34.217Z,0.30
2023-05-17T19:56:12.528Z,0.30
2023-05-17T19:58:39.593Z,0.30
2023-05-17T20:01:11.556Z,0.32
2023-05-17T20:03:41.831Z,0.35
2023-05-17T20:06:14.172Z,0.30
2023-05-17T20:11:13.247Z,0.17
2023-05-17T20:13:43.292Z,0.20
2023-05-17T20:16:32.445Z,0.50
2023-05-17T20:19:43.670Z,0.40
2023-05-17T20:22:12.353Z,0.40
2023-05-17T20:24:40.010Z,0.30
2023-05-17T20:27:11.010Z,0.30
2023-05-17T20:29:59.436Z,0.30
2023-05-17T20:32:32.964Z,0.30
2023-05-17T20:35:00.211Z,0.40
2023-05-17T20:37:27.343Z,0.32
2023-05-17T20:39:59.945Z,0.40
2023-05-17T20:42:31.515Z,0.40
2023-05-17T20:44:59.966Z,0.38
2023-05-17T20:50:37.185Z,0.25
2023-05-17T20:53:10.321Z,0.50
2023-05-17T20:59:35.344Z,0.40
2023-05-17T21:02:04.431Z,0.65
2023-05-17T21:04:37.200Z,0.25
2023-05-17T21:07:11.216Z,0.30
2023-05-17T21:09:38.392Z,0.30
2023-05-17T21:12:05.955Z,0.38
2023-05-17T21:14:35.781Z,0.30
2023-05-17T21:17:03.829Z,0.30
2023-05-17T21:19:31.172Z,0.30
2023-05-17T21:21:58.312Z,0.20
2023-05-17T21:24:28.347Z,0.20
2023-05-17T21:27:01.242Z,0.25
2023-05-17T21:29:31.945Z,0.28
2023-05-17T21:31:59.284Z,0.38
2023-05-17T21:34:26.951Z,0.50
2023-05-17T21:36:54.967Z,0.50
2023-05-17T21:39:22.141Z,0.20
2023-05-17T21:41:49.392Z,0.20
2023-05-17T21:44:16.593Z,0.22
2023-05-17T21:46:43.998Z,0.40
2023-05-17T21:49:11.306Z,0.20
2023-05-17T21:51:39.010Z,0.15
2023-05-17T21:54:06.134Z,0.35
2023-05-17T21:57:03.362Z,0.20
2023-05-17T21:59:30.746Z,0.40
2023-05-17T22:02:04.038Z,0.47
2023-05-17T22:04:31.654Z,0.75
2023-05-17T22:06:58.798Z,0.20
2023-05-17T22:09:29.842Z,0.40
2023-05-17T22:11:58.759Z,0.30
2023-05-17T22:14:33.483Z,0.20
2023-05-17T22:17:00.833Z,0.15
2023-05-17T22:19:32.927Z,0.30
2023-05-17T22:22:00.402Z,0.25
2023-05-17T22:24:27.556Z,0.22
2023-05-17T22:26:57.639Z,0.28
2023-05-17T22:29:24.869Z,0.20
2023-05-17T22:31:52.577Z,0.30
2023-05-17T22:34:19.873Z,0.52
2023-05-17T22:36:49.620Z,0.40
2023-05-17T22:39:16.879Z,0.50
2023-05-17T22:41:44.469Z,0.40
2023-05-17T22:44:11.925Z,0.28
2023-05-17T22:46:42.290Z,0.30
2023-05-17T22:49:14.629Z,0.30
2023-05-17T22:51:42.633Z,0.40
2023-05-17T22:54:10.084Z,0.35
2023-05-17T22:56:37.402Z,0.50
2023-05-17T22:59:04.696Z,0.32
2023-05-17T23:01:32.026Z,0.32
2023-05-17T23:03:59.210Z,0.20
2023-05-17T23:06:26.509Z,0.30
